createdAt,value
2023-03-29T00:02:33.048Z,2.70
2023-03-29T00:05:03.958Z,2.97
2023-03-29T00:07:35.008Z,2.42
2023-03-29T00:10:04.527Z,3.25
2023-03-29T00:12:32.662Z,2.60
2023-03-29T00:15:00.446Z,2.47
2023-03-29T00:17:28.793Z,2.10
2023-03-29T00:19:56.558Z,3.33
2023-03-29T00:22:24.635Z,2.42
2023-03-29T00:24:54.812Z,2.15
2023-03-29T00:27:22.621Z,2.20
2023-03-29T00:29:50.616Z,2.47
2023-03-29T00:32:18.358Z,2.30
2023-03-29T00:34:46.516Z,2.78
2023-03-29T00:37:14.812Z,2.75
2023-03-29T00:39:43.994Z,3.35
2023-03-29T00:42:15.705Z,3.75
2023-03-29T00:45:00.304Z,2.22
2023-03-29T00:47:29.902Z,2.40
2023-03-29T00:50:00.380Z,3.10
2023-03-29T00:52:30.229Z,2.72
2023-03-29T00:54:59.493Z,2.40
2023-03-29T00:57:30.044Z,3.05
2023-03-29T00:59:58.987Z,2.80
2023-03-29T01:02:28.944Z,2.88
2023-03-29T01:05:00.199Z,2.42
2023-03-29T01:07:30.741Z,2.75
2023-03-29T01:10:01.829Z,2.40
2023-03-29T01:12:32.853Z,2.50
2023-03-29T01:15:03.319Z,2.60
2023-03-29T01:17:31.723Z,2.55
2023-03-29T01:20:00.705Z,2.40
2023-03-29T01:22:33.864Z,2.97
2023-03-29T01:25:07.246Z,3.10
2023-03-29T01:27:43.941Z,2.22
2023-03-29T01:30:14.124Z,2.45
2023-03-29T01:32:44.790Z,3.03
2023-03-29T01:35:15.888Z,2.80
2023-03-29T01:37:48.057Z,2.55
2023-03-29T01:40:16.058Z,2.22
2023-03-29T01:42:46.780Z,2.55
2023-03-29T01:45:18.540Z,2.60
2023-03-29T01:47:49.215Z,2.72
2023-03-29T01:50:19.036Z,2.45
2023-03-29T01:52:49.635Z,2.30
2023-03-29T01:55:22.990Z,3.30
2023-03-29T01:57:54.107Z,3.00
2023-03-29T02:00:24.671Z,3.03
2023-03-29T02:02:54.395Z,3.78
2023-03-29T02:05:24.437Z,2.47
2023-03-29T02:07:52.898Z,3.08
2023-03-29T02:10:21.433Z,2.67
2023-03-29T02:12:49.230Z,2.92
2023-03-29T02:15:20.309Z,2.35
2023-03-29T02:17:49.302Z,3.20
2023-03-29T02:20:22.458Z,2.53
2023-03-29T02:22:52.728Z,2.60
2023-03-29T02:25:22.700Z,2.65
2023-03-29T02:27:50.539Z,3.30
2023-03-29T02:30:20.741Z,3.17
2023-03-29T02:32:50.840Z,3.53
2023-03-29T02:35:21.633Z,3.05
2023-03-29T02:37:51.606Z,4.15
2023-03-29T02:40:20.878Z,3.65
2023-03-29T02:42:49.795Z,3.63
2023-03-29T02:45:18.348Z,3.35
2023-03-29T02:47:51.499Z,2.90
2023-03-29T02:50:19.840Z,3.00
2023-03-29T02:52:52.984Z,2.70
2023-03-29T02:55:23.600Z,2.45
2023-03-29T02:57:51.347Z,2.80
2023-03-29T03:00:19.931Z,3.00
2023-03-29T03:02:50.767Z,2.95
2023-03-29T03:05:19.347Z,2.53
2023-03-29T03:07:47.084Z,2.70
2023-03-29T03:10:15.098Z,2.70
2023-03-29T03:12:42.837Z,2.97
2023-03-29T03:15:10.897Z,3.53
2023-03-29T03:17:40.160Z,2.75
2023-03-29T03:20:12.958Z,2.90
2023-03-29T03:22:41.395Z,2.72
2023-03-29T03:25:11.410Z,2.83
2023-03-29T03:27:40.040Z,2.50
2023-03-29T03:30:08.523Z,3.05
2023-03-29T03:32:36.522Z,3.85
2023-03-29T03:35:05.920Z,2.67
2023-03-29T03:37:34.993Z,2.97
2023-03-29T03:40:03.579Z,3.78
2023-03-29T03:42:31.300Z,2.65
2023-03-29T03:44:59.226Z,2.95
2023-03-29T03:47:27.247Z,2.88
2023-03-29T03:49:55.222Z,2.60
2023-03-29T03:52:25.487Z,3.22
2023-03-29T03:54:54.548Z,2.97
2023-03-29T03:57:23.260Z,3.25
2023-03-29T03:59:51.261Z,2.78
2023-03-29T04:02:20.480Z,3.00
2023-03-29T04:04:49.320Z,3.38
2023-03-29T04:07:17.897Z,4.38
2023-03-29T04:09:46.119Z,3.45
2023-03-29T04:12:15.159Z,3.70
2023-03-29T04:14:42.969Z,3.95
2023-03-29T04:17:11.066Z,3.55
2023-03-29T04:19:39.037Z,4.03
2023-03-29T04:22:06.775Z,4.90
2023-03-29T04:24:34.766Z,6.38
2023-03-29T04:27:02.734Z,7.03
2023-03-29T04:29:31.811Z,6.15
2023-03-29T04:31:59.936Z,5.38
2023-03-29T04:34:27.710Z,4.38
2023-03-29T04:36:55.836Z,3.80
2023-03-29T04:39:31.795Z,3.78
2023-03-29T04:42:00.107Z,4.38
2023-03-29T04:44:28.051Z,3.97
2023-03-29T04:46:57.379Z,3.05
2023-03-29T04:49:26.179Z,3.28
2023-03-29T04:51:54.648Z,3.47
2023-03-29T04:54:22.479Z,2.45
2023-03-29T04:56:52.193Z,4.32
2023-03-29T04:59:20.191Z,2.78
2023-03-29T05:01:47.981Z,3.60
2023-03-29T05:04:18.353Z,2.90
2023-03-29T05:06:46.200Z,2.92
2023-03-29T05:09:13.913Z,3.47
2023-03-29T05:11:41.749Z,2.58
2023-03-29T05:14:09.555Z,2.97
2023-03-29T05:16:38.081Z,4.15
2023-03-29T05:19:05.932Z,3.88
2023-03-29T05:21:35.452Z,3.95
2023-03-29T05:24:03.188Z,4.07
2023-03-29T05:26:31.211Z,6.65
2023-03-29T05:28:58.953Z,5.93
2023-03-29T05:31:28.195Z,5.25
2023-03-29T05:33:55.978Z,4.82
2023-03-29T05:36:23.720Z,4.22
2023-03-29T05:38:52.814Z,3.83
2023-03-29T05:41:20.767Z,3.40
2023-03-29T05:43:48.551Z,4.82
2023-03-29T05:46:16.645Z,4.18
2023-03-29T05:48:44.868Z,4.30
2023-03-29T05:51:13.024Z,4.32
2023-03-29T05:53:40.999Z,4.63
2023-03-29T05:56:11.091Z,4.70
2023-03-29T05:58:39.674Z,5.95
2023-03-29T06:01:11.900Z,5.65
2023-03-29T06:03:39.791Z,5.68
2023-03-29T06:06:09.510Z,5.53
2023-03-29T06:08:37.590Z,5.15
2023-03-29T06:11:08.911Z,4.72
2023-03-29T06:13:38.976Z,5.35
2023-03-29T06:16:07.496Z,5.10
2023-03-29T06:18:35.615Z,4.53
2023-03-29T06:21:03.782Z,4.00
2023-03-29T06:23:31.991Z,4.68
2023-03-29T06:26:00.739Z,4.38
2023-03-29T06:28:28.621Z,4.57
2023-03-29T06:31:02.387Z,4.80
2023-03-29T06:33:32.316Z,4.00
2023-03-29T06:36:00.139Z,4.07
2023-03-29T06:38:28.573Z,4.13
2023-03-29T06:41:01.466Z,4.68
2023-03-29T06:43:29.454Z,4.85
2023-03-29T06:45:58.575Z,4.65
2023-03-29T06:48:26.773Z,4.10
2023-03-29T06:50:54.626Z,3.60
2023-03-29T06:53:22.941Z,4.13
2023-03-29T06:55:50.772Z,3.35
2023-03-29T06:58:18.659Z,3.72
2023-03-29T07:00:46.844Z,4.03
2023-03-29T07:03:20.419Z,3.40
2023-03-29T07:05:48.276Z,2.80
2023-03-29T07:08:16.932Z,2.95
2023-03-29T07:10:47.449Z,2.97
2023-03-29T07:13:15.650Z,3.65
2023-03-29T07:18:52.204Z,3.15
2023-03-29T07:21:20.580Z,3.42
2023-03-29T07:23:48.652Z,4.10
2023-03-29T07:26:28.837Z,3.88
2023-03-29T07:28:58.064Z,3.53
2023-03-29T07:31:25.793Z,3.70
2023-03-29T07:33:56.050Z,3.20
2023-03-29T07:36:24.188Z,4.40
2023-03-29T07:38:53.972Z,5.68
2023-03-29T07:41:23.668Z,6.05
2023-03-29T07:43:52.097Z,5.80
2023-03-29T07:46:20.493Z,6.45
2023-03-29T07:48:48.320Z,5.43
2023-03-29T07:51:30.919Z,4.28
2023-03-29T07:56:47.660Z,4.10
2023-03-29T07:59:15.528Z,3.90
2023-03-29T08:01:43.651Z,4.50
2023-03-29T08:04:11.717Z,4.38
2023-03-29T08:06:40.885Z,3.95
2023-03-29T08:09:08.778Z,4.40
2023-03-29T08:11:38.513Z,4.30
2023-03-29T08:14:07.020Z,5.65
2023-03-29T08:16:34.836Z,5.78
2023-03-29T08:19:03.098Z,5.97
2023-03-29T08:21:31.742Z,5.35
2023-03-29T08:24:01.071Z,4.57
2023-03-29T08:26:29.034Z,4.10
2023-03-29T08:28:56.834Z,4.47
2023-03-29T08:31:24.592Z,5.47
2023-03-29T08:33:53.434Z,3.95
2023-03-29T08:36:21.235Z,4.90
2023-03-29T08:38:50.648Z,4.45
2023-03-29T08:41:26.092Z,4.78
2023-03-29T08:43:59.508Z,4.88
2023-03-29T08:46:35.482Z,4.15
2023-03-29T08:49:04.892Z,5.45
2023-03-29T08:51:33.956Z,5.57
2023-03-29T08:54:04.994Z,4.97
2023-03-29T08:56:35.746Z,5.22
2023-03-29T08:59:04.253Z,5.88
2023-03-29T09:01:35.405Z,5.38
2023-03-29T09:04:06.942Z,5.53
2023-03-29T09:06:34.925Z,4.57
2023-03-29T09:09:02.934Z,4.60
2023-03-29T09:11:40.736Z,4.00
2023-03-29T09:14:14.550Z,5.03
2023-03-29T09:16:45.420Z,4.78
2023-03-29T09:19:17.871Z,5.18
2023-03-29T09:21:49.828Z,5.05
2023-03-29T09:24:28.581Z,4.45
2023-03-29T09:27:01.608Z,4.35
2023-03-29T09:31:57.810Z,4.25
2023-03-29T09:34:29.658Z,4.43
2023-03-29T09:37:02.442Z,4.63
2023-03-29T09:39:30.202Z,4.97
2023-03-29T09:42:03.980Z,5.03
2023-03-29T09:44:33.626Z,5.05
2023-03-29T09:47:04.099Z,4.07
2023-03-29T09:49:33.876Z,4.18
2023-03-29T09:52:02.832Z,4.70
2023-03-29T09:54:30.750Z,4.18
2023-03-29T09:57:01.023Z,4.18
2023-03-29T09:59:29.106Z,4.05
2023-03-29T10:02:06.038Z,4.07
2023-03-29T10:04:33.883Z,4.50
2023-03-29T10:07:02.210Z,4.68
2023-03-29T10:09:30.704Z,3.95
2023-03-29T10:12:02.287Z,3.95
2023-03-29T10:14:34.032Z,4.15
2023-03-29T10:17:02.028Z,3.88
2023-03-29T10:19:30.801Z,4.25
2023-03-29T10:22:00.455Z,4.93
2023-03-29T10:24:29.121Z,5.13
2023-03-29T10:26:59.018Z,4.75
2023-03-29T10:29:28.773Z,4.97
2023-03-29T10:31:56.654Z,4.22
2023-03-29T10:34:28.429Z,4.75
2023-03-29T10:37:01.018Z,4.00
2023-03-29T10:39:29.915Z,4.18
2023-03-29T10:41:59.844Z,3.90
2023-03-29T10:44:32.906Z,4.07
2023-03-29T10:47:08.855Z,4.18
2023-03-29T10:49:41.515Z,4.10
2023-03-29T10:52:09.549Z,4.13
2023-03-29T10:54:37.546Z,4.30
2023-03-29T10:57:09.338Z,3.28
2023-03-29T10:59:43.333Z,4.57
2023-03-29T11:02:26.958Z,4.28
2023-03-29T11:05:00.280Z,2.95
2023-03-29T11:07:30.573Z,3.55
2023-03-29T11:10:18.209Z,3.08
2023-03-29T11:12:50.604Z,3.03
2023-03-29T11:15:27.454Z,3.30
2023-03-29T11:17:59.458Z,3.65
2023-03-29T11:20:35.556Z,3.85
2023-03-29T11:23:09.210Z,3.22
2023-03-29T11:25:41.872Z,2.83
2023-03-29T11:28:12.357Z,3.33
2023-03-29T11:30:43.871Z,3.20
2023-03-29T11:33:18.134Z,2.90
2023-03-29T11:35:48.504Z,3.10
2023-03-29T11:38:23.870Z,3.10
2023-03-29T11:40:55.698Z,2.63
2023-03-29T11:43:26.430Z,3.03
2023-03-29T11:45:56.781Z,3.25
2023-03-29T11:48:26.531Z,2.70
2023-03-29T11:50:56.118Z,2.90
2023-03-29T11:53:26.623Z,3.55
2023-03-29T11:55:55.197Z,3.25
2023-03-29T11:58:24.679Z,3.45
2023-03-29T12:00:55.294Z,2.75
2023-03-29T12:03:32.243Z,2.80
2023-03-29T12:06:04.384Z,3.20
2023-03-29T12:08:34.738Z,2.92
2023-03-29T12:11:05.374Z,2.88
2023-03-29T12:13:34.583Z,4.35
2023-03-29T12:16:07.235Z,3.05
2023-03-29T12:18:39.331Z,2.97
2023-03-29T12:21:10.956Z,3.03
2023-03-29T12:23:39.061Z,3.45
2023-03-29T12:26:13.187Z,3.25
2023-03-29T12:28:51.999Z,2.63
2023-03-29T12:31:24.721Z,2.47
2023-03-29T12:34:10.163Z,2.20
2023-03-29T12:36:44.873Z,2.40
2023-03-29T12:39:14.485Z,2.67
2023-03-29T12:41:45.860Z,2.83
2023-03-29T12:44:14.910Z,3.25
2023-03-29T12:46:43.366Z,3.55
2023-03-29T12:49:12.442Z,3.00
2023-03-29T12:51:41.973Z,3.63
2023-03-29T12:54:13.460Z,3.55
2023-03-29T12:56:42.610Z,3.25
2023-03-29T12:59:27.269Z,2.75
2023-03-29T13:02:00.234Z,2.72
2023-03-29T13:04:38.820Z,3.00
2023-03-29T13:07:07.192Z,2.55
2023-03-29T13:09:47.980Z,3.08
2023-03-29T13:12:22.301Z,2.58
2023-03-29T13:14:51.732Z,2.40
2023-03-29T13:17:35.237Z,1.85
2023-03-29T13:20:12.533Z,2.88
2023-03-29T13:22:46.790Z,3.03
2023-03-29T13:25:32.250Z,3.95
2023-03-29T13:28:05.231Z,1.83
2023-03-29T13:30:36.646Z,1.70
2023-03-29T13:33:16.009Z,2.10
2023-03-29T13:35:50.870Z,3.28
2023-03-29T13:38:20.268Z,2.85
2023-03-29T13:40:59.030Z,3.08
2023-03-29T13:43:35.565Z,2.00
2023-03-29T13:46:07.624Z,3.92
2023-03-29T13:48:50.209Z,3.33
2023-03-29T13:51:22.574Z,2.75
2023-03-29T13:53:51.636Z,3.53
2023-03-29T13:56:20.949Z,2.95
2023-03-29T13:58:52.883Z,1.90
2023-03-29T14:01:24.529Z,11.48
2023-03-29T14:03:53.279Z,3.00
2023-03-29T14:06:24.110Z,2.25
2023-03-29T14:08:52.949Z,2.53
2023-03-29T14:11:23.046Z,2.15
2023-03-29T14:13:54.869Z,2.60
2023-03-29T14:16:22.842Z,3.20
2023-03-29T14:18:52.468Z,2.80
2023-03-29T14:21:21.059Z,3.10
2023-03-29T14:23:55.076Z,3.53
2023-03-29T14:26:24.093Z,4.70
2023-03-29T14:28:52.747Z,3.50
2023-03-29T14:31:23.072Z,2.80
2023-03-29T14:33:52.878Z,3.38
2023-03-29T14:36:21.258Z,4.68
2023-03-29T14:38:50.974Z,6.13
2023-03-29T14:41:18.970Z,12.85
2023-03-29T14:43:48.129Z,8.35
2023-03-29T14:46:18.838Z,5.30
2023-03-29T14:48:48.296Z,3.17
2023-03-29T14:51:16.230Z,2.88
2023-03-29T14:53:44.759Z,2.75
2023-03-29T14:56:14.543Z,2.80
2023-03-29T14:58:46.496Z,3.10
2023-03-29T15:01:16.739Z,2.55
2023-03-29T15:03:46.014Z,2.30
2023-03-29T15:06:15.846Z,3.33
2023-03-29T15:08:54.137Z,2.53
2023-03-29T15:11:30.714Z,2.70
2023-03-29T15:14:01.732Z,2.72
2023-03-29T15:16:31.145Z,2.83
2023-03-29T15:18:59.388Z,2.83
2023-03-29T15:21:33.658Z,2.58
2023-03-29T15:24:02.833Z,3.17
2023-03-29T15:26:31.783Z,2.88
2023-03-29T15:29:03.963Z,2.60
2023-03-29T15:31:34.676Z,3.00
2023-03-29T15:34:04.765Z,2.63
2023-03-29T15:36:35.772Z,2.38
2023-03-29T15:39:03.777Z,2.47
2023-03-29T15:41:31.904Z,1.67
2023-03-29T15:44:03.058Z,2.22
2023-03-29T15:46:32.788Z,2.10
2023-03-29T15:49:01.102Z,2.50
2023-03-29T15:51:31.929Z,2.20
2023-03-29T15:54:01.199Z,2.28
2023-03-29T15:56:29.208Z,2.20
2023-03-29T15:58:58.174Z,1.77
2023-03-29T16:01:33.569Z,2.50
2023-03-29T16:04:01.443Z,2.33
2023-03-29T16:06:32.684Z,2.28
2023-03-29T16:09:02.006Z,2.40
2023-03-29T16:11:30.112Z,3.00
2023-03-29T16:13:58.285Z,2.20
2023-03-29T16:16:26.111Z,2.50
2023-03-29T16:18:53.918Z,2.28
2023-03-29T16:21:23.027Z,2.85
2023-03-29T16:23:51.501Z,2.83
2023-03-29T16:26:22.189Z,2.40
2023-03-29T16:28:52.728Z,2.90
2023-03-29T16:31:20.554Z,2.67
2023-03-29T16:33:48.339Z,3.13
2023-03-29T16:36:16.210Z,2.42
2023-03-29T16:38:44.551Z,3.60
2023-03-29T16:41:14.219Z,2.88
2023-03-29T16:43:46.505Z,2.65
2023-03-29T16:46:17.156Z,2.90
2023-03-29T16:48:44.971Z,3.88
2023-03-29T16:51:15.096Z,4.25
2023-03-29T16:53:46.005Z,4.97
2023-03-29T16:56:14.786Z,4.43
2023-03-29T16:58:43.991Z,3.35
2023-03-29T17:01:13.331Z,4.07
2023-03-29T17:03:41.475Z,3.65
2023-03-29T17:06:10.253Z,15.57
2023-03-29T17:08:39.007Z,11.02
2023-03-29T17:11:07.318Z,12.27
2023-03-29T17:13:35.354Z,10.43
2023-03-29T17:16:04.720Z,6.75
2023-03-29T17:18:32.621Z,4.78
2023-03-29T17:21:05.416Z,3.72
2023-03-29T17:23:33.481Z,3.80
2023-03-29T17:26:02.128Z,4.18
2023-03-29T17:28:30.453Z,4.95
2023-03-29T17:30:58.278Z,5.18
2023-03-29T17:33:27.717Z,5.55
2023-03-29T17:35:55.964Z,4.65
2023-03-29T17:38:23.855Z,4.25
2023-03-29T17:40:54.701Z,3.88
2023-03-29T17:43:22.895Z,4.07
2023-03-29T17:45:53.867Z,4.05
2023-03-29T17:48:23.860Z,4.20
2023-03-29T17:50:53.020Z,4.50
2023-03-29T17:53:21.585Z,4.82
2023-03-29T17:55:49.597Z,5.10
2023-03-29T17:58:17.382Z,5.32
2023-03-29T18:00:45.363Z,6.97
2023-03-29T18:03:13.171Z,6.18
2023-03-29T18:05:41.204Z,5.78
2023-03-29T18:08:10.396Z,5.30
2023-03-29T18:10:38.220Z,5.57
2023-03-29T18:13:05.966Z,4.70
2023-03-29T18:15:33.702Z,5.45
2023-03-29T18:18:01.679Z,5.57
2023-03-29T18:20:29.421Z,4.82
2023-03-29T18:22:57.648Z,4.65
2023-03-29T18:25:27.073Z,4.40
2023-03-29T18:27:54.862Z,3.75
2023-03-29T18:30:22.791Z,3.97
2023-03-29T18:32:50.585Z,4.40
2023-03-29T18:35:18.798Z,3.75
2023-03-29T18:37:46.950Z,4.28
2023-03-29T18:40:15.508Z,4.45
2023-03-29T18:42:44.612Z,4.68
2023-03-29T18:45:12.904Z,4.70
2023-03-29T18:47:40.954Z,3.83
2023-03-29T18:50:09.325Z,3.78
2023-03-29T18:52:37.865Z,3.38
2023-03-29T18:55:06.705Z,3.58
2023-03-29T18:57:34.780Z,3.33
2023-03-29T19:00:10.519Z,3.20
2023-03-29T19:02:39.068Z,3.28
2023-03-29T19:05:07.798Z,3.30
2023-03-29T19:07:36.336Z,3.60
2023-03-29T19:10:05.160Z,2.92
2023-03-29T19:12:33.801Z,3.58
2023-03-29T19:15:01.569Z,4.05
2023-03-29T19:17:30.790Z,7.88
2023-03-29T19:19:58.838Z,9.73
2023-03-29T19:22:26.596Z,9.95
2023-03-29T19:24:54.383Z,10.52
2023-03-29T19:27:22.588Z,9.65
2023-03-29T19:29:50.810Z,7.45
2023-03-29T19:32:18.567Z,8.43
2023-03-29T19:34:47.904Z,6.70
2023-03-29T19:37:17.460Z,9.27
2023-03-29T19:39:45.688Z,9.25
2023-03-29T19:42:13.453Z,8.50
2023-03-29T19:44:42.717Z,7.72
2023-03-29T19:47:10.695Z,7.07
2023-03-29T19:49:39.075Z,5.80
2023-03-29T19:52:08.387Z,5.20
2023-03-29T19:54:36.122Z,4.70
2023-03-29T19:57:04.086Z,3.88
2023-03-29T19:59:32.366Z,4.15
2023-03-29T20:02:02.230Z,4.32
2023-03-29T20:04:33.131Z,4.68
2023-03-29T20:07:01.048Z,4.78
2023-03-29T20:09:30.238Z,3.92
2023-03-29T20:11:57.957Z,3.80
2023-03-29T20:14:25.879Z,3.70
2023-03-29T20:16:54.164Z,2.85
2023-03-29T20:19:25.634Z,3.40
2023-03-29T20:21:55.110Z,3.20
2023-03-29T20:24:23.400Z,3.03
2023-03-29T20:26:53.174Z,2.65
2023-03-29T20:29:20.933Z,2.80
2023-03-29T20:31:48.944Z,2.75
2023-03-29T20:34:18.104Z,2.83
2023-03-29T20:36:46.914Z,2.38
2023-03-29T20:39:17.568Z,2.28
2023-03-29T20:41:47.874Z,2.78
2023-03-29T20:44:18.436Z,2.63
2023-03-29T20:46:54.613Z,2.78
2023-03-29T20:49:26.152Z,2.35
2023-03-29T20:51:58.830Z,3.13
2023-03-29T20:54:26.953Z,3.45
2023-03-29T20:56:56.018Z,2.95
2023-03-29T20:59:25.387Z,4.55
2023-03-29T21:01:53.139Z,4.40
2023-03-29T21:04:21.034Z,4.72
2023-03-29T21:06:49.889Z,4.63
2023-03-29T21:09:17.805Z,4.55
2023-03-29T21:11:45.552Z,4.78
2023-03-29T21:14:14.428Z,4.03
2023-03-29T21:16:44.008Z,4.50
2023-03-29T21:19:12.408Z,4.30
2023-03-29T21:21:41.428Z,3.05
2023-03-29T21:24:10.368Z,4.13
2023-03-29T21:26:38.355Z,3.83
2023-03-29T21:29:06.417Z,3.25
2023-03-29T21:31:34.305Z,3.30
2023-03-29T21:34:03.720Z,3.08
2023-03-29T21:36:31.521Z,3.17
2023-03-29T21:38:59.581Z,3.28
2023-03-29T21:41:27.497Z,4.43
2023-03-29T21:43:55.368Z,4.85
2023-03-29T21:46:24.935Z,3.55
2023-03-29T21:48:52.931Z,3.75
2023-03-29T21:51:22.258Z,3.42
2023-03-29T21:53:50.045Z,3.72
2023-03-29T21:56:17.878Z,3.20
2023-03-29T21:58:45.884Z,3.78
2023-03-29T22:01:13.679Z,3.30
2023-03-29T22:03:41.454Z,3.28
2023-03-29T22:06:09.722Z,2.78
2023-03-29T22:08:40.515Z,3.33
2023-03-29T22:11:09.712Z,3.75
2023-03-29T22:13:39.039Z,4.30
2023-03-29T22:16:07.850Z,4.25
2023-03-29T22:18:43.485Z,4.22
2023-03-29T22:21:14.168Z,3.28
2023-03-29T22:23:44.250Z,3.55
2023-03-29T22:26:13.026Z,3.00
2023-03-29T22:28:41.914Z,3.38
2023-03-29T22:31:10.786Z,3.00
2023-03-29T22:33:39.109Z,3.13
2023-03-29T22:36:12.777Z,3.53
2023-03-29T22:38:40.730Z,4.82
2023-03-29T22:41:09.950Z,3.30
2023-03-29T22:43:38.259Z,2.97
2023-03-29T22:46:07.007Z,2.95
2023-03-29T22:48:35.213Z,2.88
2023-03-29T22:51:03.453Z,2.80
2023-03-29T22:53:31.452Z,2.90
2023-03-29T22:55:59.455Z,3.45
2023-03-29T22:58:29.385Z,2.95
2023-03-29T23:00:57.732Z,3.58
2023-03-29T23:03:26.580Z,3.15
2023-03-29T23:05:55.994Z,3.17
2023-03-29T23:08:23.789Z,2.45
2023-03-29T23:10:51.631Z,3.50
2023-03-29T23:13:24.259Z,2.50
2023-03-29T23:15:55.018Z,2.65
2023-03-29T23:18:23.809Z,2.67
2023-03-29T23:20:52.710Z,3.10
2023-03-29T23:23:21.241Z,3.03
2023-03-29T23:25:49.904Z,3.13
2023-03-29T23:28:21.370Z,2.80
2023-03-29T23:30:56.306Z,3.00
2023-03-29T23:33:25.822Z,2.97
2023-03-29T23:35:53.720Z,3.17
2023-03-29T23:38:21.538Z,2.83
2023-03-29T23:40:58.693Z,3.40
2023-03-29T23:43:27.164Z,3.13
2023-03-29T23:46:00.549Z,3.38
2023-03-29T23:48:28.791Z,3.20
2023-03-29T23:50:57.828Z,2.85
2023-03-29T23:53:28.953Z,2.97
2023-03-29T23:55:58.558Z,3.17
2023-03-29T23:58:26.294Z,3.40
